Ashley, Michigan
Current Conditions -  °F | °C
As of 5:35 AM on Saturday 22 Nov 2014 (Local Time) from KAMN Reporting Station
Overcast Overcast  
Wind Chill: 22°   Ceiling: 1800
Heat Index: 30°   Visibility: 10mi
Dew Point: 19°   Wind: 9mph
Humidity: 63%   Direction: 200°SSW
Pressure: 30.08"   Gusts: NA
Location:  43.19°N, 84.47°W
Report Text: KAMN 221035Z AUTO 20008KT 10SM OVC018 M01/M07 A3008 RMK AO2 T10111074
Loading
Personal Weather Stations






























Interactive Weather Map New forecast layout! Learn more

10-Day Weather Forecast

Advertisements
Track Severe Weather on mobile